createdAt,value
2019-05-16T00:00:11.700Z,99406.87
2019-05-16T00:02:40.580Z,99404.69
2019-05-16T00:05:09.573Z,99398.56
2019-05-16T00:07:38.879Z,99391.52
2019-05-16T00:10:08.711Z,99392.84
2019-05-16T00:12:39.856Z,99385.84
2019-05-16T00:15:09.050Z,99381.84
2019-05-16T00:17:38.719Z,99378.66
2019-05-16T00:20:09.362Z,99379.52
2019-05-16T00:22:39.300Z,99374.63
2019-05-16T00:25:09.835Z,99368.80
2019-05-16T00:27:38.824Z,99369.22
2019-05-16T00:30:09.153Z,99374.08
2019-05-16T00:32:38.966Z,99373.61
2019-05-16T00:35:09.271Z,99371.06
2019-05-16T00:37:39.166Z,99374.59
2019-05-16T00:40:09.621Z,99366.67
2019-05-16T00:42:39.074Z,99363.53
2019-05-16T00:45:09.435Z,99360.44
2019-05-16T00:47:38.937Z,99361.76
2019-05-16T00:50:09.291Z,99355.26
2019-05-16T00:52:39.608Z,99349.12
2019-05-16T00:55:09.085Z,99342.05
2019-05-16T00:57:39.361Z,99346.39
2019-05-16T01:00:10.815Z,99342.03
2019-05-16T01:02:39.513Z,99345.90
2019-05-16T01:05:08.930Z,99338.34
2019-05-16T01:07:39.232Z,99338.46
2019-05-16T01:10:09.408Z,99335.77
2019-05-16T01:12:39.058Z,99336.69
2019-05-16T01:15:09.419Z,99334.47
2019-05-16T01:17:39.082Z,99327.94
2019-05-16T01:20:08.770Z,99328.78
2019-05-16T01:22:38.408Z,99325.37
2019-05-16T01:25:09.310Z,99325.78
2019-05-16T01:27:38.821Z,99321.65
2019-05-16T01:30:09.391Z,99315.05
2019-05-16T01:32:39.307Z,99315.51
2019-05-16T01:35:08.643Z,99316.06
2019-05-16T01:37:38.479Z,99313.91
2019-05-16T01:40:08.813Z,99314.80
2019-05-16T01:42:38.526Z,99312.08
2019-05-16T01:45:09.947Z,99306.77
2019-05-16T01:47:39.464Z,99308.37
2019-05-16T01:50:10.107Z,99302.38
2019-05-16T01:52:38.756Z,99300.64
2019-05-16T01:55:08.456Z,99295.36
2019-05-16T01:57:39.186Z,99290.46
2019-05-16T02:00:08.637Z,99294.48
2019-05-16T02:02:38.550Z,99292.64
2019-05-16T02:05:08.511Z,99286.02
2019-05-16T02:07:38.750Z,99281.15
2019-05-16T02:10:08.803Z,99276.70
2019-05-16T02:12:38.478Z,99282.83
2019-05-16T02:15:08.587Z,99281.52
2019-05-16T02:17:38.458Z,99281.95
2019-05-16T02:20:08.978Z,99277.12
2019-05-16T02:22:38.920Z,99275.78
2019-05-16T02:25:09.187Z,99275.34
2019-05-16T02:27:40.912Z,99265.66
2019-05-16T02:30:12.445Z,99268.30
2019-05-16T02:32:41.751Z,99261.25
2019-05-16T02:35:12.022Z,99264.34
2019-05-16T02:37:42.417Z,99259.06
2019-05-16T02:40:13.447Z,99250.70
2019-05-16T02:42:42.540Z,99247.13
2019-05-16T02:45:12.138Z,99250.63
2019-05-16T02:47:42.505Z,99243.14
2019-05-16T02:50:12.369Z,99244.01
2019-05-16T02:52:41.771Z,99252.34
2019-05-16T02:55:12.092Z,99253.69
2019-05-16T02:57:41.904Z,99244.44
2019-05-16T03:00:12.284Z,99240.47
2019-05-16T03:02:42.064Z,99243.95
2019-05-16T03:05:12.358Z,99238.25
2019-05-16T03:07:47.287Z,99239.16
2019-05-16T03:10:15.342Z,99236.06
2019-05-16T03:12:46.262Z,99236.06
2019-05-16T03:15:15.415Z,99230.34
2019-05-16T03:17:44.601Z,99226.84
2019-05-16T03:20:13.899Z,99229.05
2019-05-16T03:22:43.016Z,99229.48
2019-05-16T03:25:12.080Z,99229.05
2019-05-16T03:27:41.570Z,99221.61
2019-05-16T03:30:16.127Z,99222.08
2019-05-16T03:32:45.653Z,99217.69
2019-05-16T03:35:16.146Z,99214.16
2019-05-16T03:37:54.946Z,99212.84
2019-05-16T03:40:25.413Z,99211.46
2019-05-16T03:42:54.590Z,99214.12
2019-05-16T03:45:23.211Z,99209.78
2019-05-16T03:47:51.661Z,99211.97
2019-05-16T03:50:21.785Z,99205.93
2019-05-16T03:52:51.010Z,99211.95
2019-05-16T03:55:21.353Z,99211.10
2019-05-16T03:57:51.651Z,99211.10
2019-05-16T04:00:23.490Z,99210.65
2019-05-16T04:02:52.443Z,99211.55
2019-05-16T04:05:21.321Z,99206.28
2019-05-16T04:07:51.571Z,99204.52
2019-05-16T04:10:21.562Z,99208.03
2019-05-16T04:12:51.303Z,99202.76
2019-05-16T04:15:21.521Z,99194.42
2019-05-16T04:17:51.219Z,99197.94
2019-05-16T04:20:21.393Z,99191.33
2019-05-16T04:22:51.236Z,99193.53
2019-05-16T04:25:21.597Z,99188.66
2019-05-16T04:27:50.368Z,99191.34
2019-05-16T04:30:21.923Z,99187.00
2019-05-16T04:32:50.993Z,99186.17
2019-05-16T04:35:21.540Z,99187.90
2019-05-16T04:37:51.341Z,99188.80
2019-05-16T04:40:21.957Z,99187.06
2019-05-16T04:42:51.304Z,99195.45
2019-05-16T04:45:21.082Z,99181.83
2019-05-16T04:47:51.126Z,99182.70
2019-05-16T04:50:21.221Z,99180.92
2019-05-16T04:52:51.794Z,99182.66
2019-05-16T04:55:21.009Z,99173.86
2019-05-16T04:57:51.142Z,99177.39
2019-05-16T05:00:21.356Z,99176.94
2019-05-16T05:02:51.984Z,99173.02
2019-05-16T05:05:21.695Z,99176.07
2019-05-16T05:07:51.223Z,99176.52
2019-05-16T05:10:20.837Z,99176.82
2019-05-16T05:12:51.600Z,99167.55
2019-05-16T05:15:21.252Z,99169.34
2019-05-16T05:17:50.530Z,99173.70
2019-05-16T05:20:21.080Z,99172.27
2019-05-16T05:22:50.120Z,99176.22
2019-05-16T05:25:20.443Z,99169.61
2019-05-16T05:27:50.089Z,99162.58
2019-05-16T05:30:19.944Z,99164.78
2019-05-16T05:32:50.250Z,99172.68
2019-05-16T05:35:20.518Z,99162.08
2019-05-16T05:37:50.737Z,99167.34
2019-05-16T05:40:20.190Z,99161.12
2019-05-16T05:42:50.498Z,99157.13
2019-05-16T05:45:20.106Z,99162.84
2019-05-16T05:47:50.576Z,99157.63
2019-05-16T05:50:20.157Z,99155.97
2019-05-16T05:52:51.121Z,99158.50
2019-05-16T05:55:20.112Z,99158.48
2019-05-16T05:57:50.658Z,99155.81
2019-05-16T06:00:21.233Z,99149.70
2019-05-16T06:02:50.777Z,99146.65
2019-05-16T06:05:20.318Z,99148.81
2019-05-16T06:07:50.939Z,99142.61
2019-05-16T06:10:20.236Z,99143.94
2019-05-16T06:12:50.071Z,99146.58
2019-05-16T06:15:20.278Z,99144.72
2019-05-16T06:17:50.924Z,99146.47
2019-05-16T06:20:20.327Z,99153.06
2019-05-16T06:22:50.893Z,99143.78
2019-05-16T06:25:22.632Z,99142.02
2019-05-16T06:27:51.151Z,99141.02
2019-05-16T06:30:21.368Z,99137.92
2019-05-16T06:32:50.443Z,99142.75
2019-05-16T06:35:20.613Z,99140.69
2019-05-16T06:37:50.061Z,99135.88
2019-05-16T06:40:20.261Z,99143.31
2019-05-16T06:42:50.985Z,99140.16
2019-05-16T06:45:20.501Z,99140.16
2019-05-16T06:47:50.334Z,99137.95
2019-05-16T06:50:20.868Z,99137.44
2019-05-16T06:52:50.317Z,99136.85
2019-05-16T06:55:20.531Z,99137.23
2019-05-16T06:57:50.309Z,99144.64
2019-05-16T07:00:21.074Z,99142.34
2019-05-16T07:02:50.143Z,99141.70
2019-05-16T07:05:20.829Z,99141.34
2019-05-16T07:07:50.976Z,99140.59
2019-05-16T07:10:20.485Z,99135.28
2019-05-16T07:12:50.370Z,99137.03
2019-05-16T07:15:20.611Z,99131.20
2019-05-16T07:17:50.623Z,99129.02
2019-05-16T07:20:20.948Z,99120.23
2019-05-16T07:22:50.464Z,99130.63
2019-05-16T07:25:20.778Z,99123.67
2019-05-16T07:27:50.990Z,99124.14
2019-05-16T07:30:20.015Z,99121.97
2019-05-16T07:32:49.998Z,99120.22
2019-05-16T07:35:20.491Z,99113.59
2019-05-16T07:37:50.015Z,99104.48
2019-05-16T07:40:26.267Z,99097.48
2019-05-16T07:42:50.976Z,99096.33
2019-05-16T07:45:20.623Z,99094.22
2019-05-16T07:47:50.894Z,99082.82
2019-05-16T07:50:20.371Z,99080.63
2019-05-16T07:52:51.137Z,99080.73
2019-05-16T07:55:20.806Z,99085.13
2019-05-16T07:57:50.689Z,99080.70
2019-05-16T08:00:21.624Z,99076.26
2019-05-16T08:02:50.705Z,99071.97
2019-05-16T08:05:20.995Z,99069.44
2019-05-16T08:07:51.245Z,99069.91
2019-05-16T08:10:37.122Z,99064.55
2019-05-16T08:12:51.476Z,99063.25
2019-05-16T08:15:21.384Z,99060.12
2019-05-16T08:17:51.243Z,99056.67
2019-05-16T08:20:21.289Z,99055.72
2019-05-16T08:22:50.886Z,99053.52
2019-05-16T08:25:20.487Z,99050.47
2019-05-16T08:27:52.062Z,99042.97
2019-05-16T08:30:21.092Z,99050.38
2019-05-16T08:32:52.876Z,99045.12
2019-05-16T08:40:21.883Z,99045.12
2019-05-16T08:45:21.463Z,99031.59
2019-05-16T08:47:52.591Z,99033.27
2019-05-16T08:50:21.864Z,99033.30
2019-05-16T08:52:52.883Z,99035.92
2019-05-16T08:55:21.886Z,99034.22
2019-05-16T09:00:21.939Z,99025.05
2019-05-16T09:02:53.199Z,99030.77
2019-05-16T09:10:14.341Z,99044.30
2019-05-16T09:10:26.103Z,99022.88
2019-05-16T09:10:35.081Z,99042.89
2019-05-16T09:12:51.997Z,99010.45
2019-05-16T09:15:21.040Z,99013.09
2019-05-16T09:17:49.925Z,99010.48
2019-05-16T09:18:30.615Z,99037.30
2019-05-16T09:18:30.894Z,99028.91
2019-05-16T09:18:38.370Z,99023.77
2019-05-16T09:20:18.490Z,99007.81
2019-05-16T09:22:48.064Z,99001.23
2019-05-16T09:25:18.616Z,99000.39
2019-05-16T09:27:47.476Z,99002.16
2019-05-16T09:30:23.504Z,98996.09
2019-05-16T09:32:48.141Z,98998.23
2019-05-16T09:35:17.818Z,98995.97
2019-05-16T09:37:47.372Z,98995.02
2019-05-16T09:40:17.528Z,98986.66
2019-05-16T09:42:47.491Z,98984.03
2019-05-16T09:45:17.309Z,98975.70
2019-05-16T09:47:48.500Z,98976.67
2019-05-16T09:50:18.534Z,98976.27
2019-05-16T09:52:47.429Z,98974.55
2019-05-16T09:55:17.558Z,98966.17
2019-05-16T09:57:46.970Z,98970.15
2019-05-16T10:00:21.962Z,98968.50
2019-05-16T10:02:50.672Z,98979.48
2019-05-16T10:05:22.382Z,98972.92
2019-05-16T10:07:51.038Z,98973.45
2019-05-16T10:10:20.318Z,98969.85
2019-05-16T10:12:48.965Z,98966.44
2019-05-16T10:15:18.990Z,98958.59
2019-05-16T10:17:47.899Z,98958.16
2019-05-16T10:20:17.550Z,98959.46
2019-05-16T10:22:50.254Z,98954.70
2019-05-16T10:25:19.395Z,98945.03
2019-05-16T10:27:47.635Z,98932.35
2019-05-16T10:30:17.889Z,98935.38
2019-05-16T10:32:47.881Z,98932.35
2019-05-16T10:35:17.645Z,98931.92
2019-05-16T10:37:47.049Z,98922.59
2019-05-16T10:40:18.186Z,98920.93
2019-05-16T10:42:47.484Z,98916.93
2019-05-16T10:45:16.946Z,98930.23
2019-05-16T10:47:48.032Z,98926.22
2019-05-16T10:50:16.750Z,98924.48
2019-05-16T10:52:48.871Z,98917.88
2019-05-16T10:55:17.684Z,98920.51
2019-05-16T10:57:47.394Z,98915.31
2019-05-16T11:00:37.141Z,98909.17
2019-05-16T11:02:47.806Z,98909.10
2019-05-16T11:05:28.692Z,98902.97
2019-05-16T11:07:48.545Z,98904.27
2019-05-16T11:10:18.141Z,98899.02
2019-05-16T11:12:53.951Z,98896.82
2019-05-16T11:15:17.714Z,98899.11
2019-05-16T11:17:46.237Z,98894.73
2019-05-16T11:20:19.631Z,98888.59
2019-05-16T11:22:47.745Z,98885.06
2019-05-16T11:25:28.082Z,98888.97
2019-05-16T11:27:47.332Z,98888.53
2019-05-16T11:30:18.043Z,98878.02
2019-05-16T11:32:48.396Z,98875.39
2019-05-16T11:35:17.440Z,98871.44
2019-05-16T11:37:47.182Z,98871.02
2019-05-16T11:40:17.750Z,98868.39
2019-05-16T11:42:51.975Z,98869.79
2019-05-16T11:45:17.929Z,98867.58
2019-05-16T11:47:47.088Z,98869.79
2019-05-16T11:50:17.912Z,98865.82
2019-05-16T11:52:47.834Z,98862.75
2019-05-16T11:55:16.834Z,98857.06
2019-05-16T11:57:47.680Z,98853.09
2019-05-16T12:00:18.120Z,98853.19
2019-05-16T12:02:47.952Z,98849.25
2019-05-16T12:05:17.281Z,98851.87
2019-05-16T12:07:48.313Z,98845.73
2019-05-16T12:10:17.027Z,98836.92
2019-05-16T12:12:45.636Z,98837.39
2019-05-16T12:15:19.418Z,98832.98
2019-05-16T12:18:00.406Z,98836.53
2019-05-16T12:20:16.903Z,98833.88
2019-05-16T12:22:45.900Z,98835.19
2019-05-16T12:25:16.793Z,98826.85
2019-05-16T12:27:44.889Z,98825.09
2019-05-16T12:30:14.229Z,98825.10
2019-05-16T12:32:42.957Z,98824.27
2019-05-16T12:35:11.762Z,98825.11
2019-05-16T12:37:40.321Z,98819.84
2019-05-16T12:40:09.159Z,98818.52
2019-05-16T12:42:37.689Z,98817.68
2019-05-16T12:45:08.319Z,98820.70
2019-05-16T12:47:37.673Z,98818.07
2019-05-16T12:50:09.124Z,98815.48
2019-05-16T12:52:38.411Z,98819.45
2019-05-16T12:55:08.508Z,98810.27
2019-05-16T12:57:38.244Z,98805.39
2019-05-16T13:00:14.985Z,98801.88
2019-05-16T13:02:40.501Z,98792.16
2019-05-16T13:05:10.056Z,98795.28
2019-05-16T13:07:38.553Z,98788.74
2019-05-16T13:10:08.323Z,98785.67
2019-05-16T13:12:38.018Z,98775.63
2019-05-16T13:15:08.154Z,98783.09
2019-05-16T13:17:37.425Z,98778.25
2019-05-16T13:20:07.997Z,98776.50
2019-05-16T13:22:38.348Z,98771.67
2019-05-16T13:25:08.032Z,98778.22
2019-05-16T13:27:37.312Z,98775.63
2019-05-16T13:30:10.688Z,98770.34
2019-05-16T13:32:39.196Z,98767.22
2019-05-16T13:35:08.734Z,98769.41
2019-05-16T13:37:37.362Z,98761.02
2019-05-16T13:40:08.159Z,98755.31
2019-05-16T13:42:37.250Z,98752.67
2019-05-16T13:45:09.568Z,98750.52
2019-05-16T13:47:38.062Z,98744.31
2019-05-16T13:50:12.305Z,98738.56
2019-05-16T13:52:39.077Z,98731.97
2019-05-16T13:55:08.683Z,98734.70
2019-05-16T13:57:37.732Z,98731.20
2019-05-16T14:00:09.154Z,98734.26
2019-05-16T14:02:38.292Z,98722.84
2019-05-16T14:05:08.581Z,98723.73
2019-05-16T14:07:37.796Z,98719.38
2019-05-16T14:10:10.569Z,98714.11
2019-05-16T14:12:39.346Z,98709.28
2019-05-16T14:15:09.863Z,98700.05
2019-05-16T14:17:38.563Z,98701.38
2019-05-16T14:20:14.460Z,98697.86
2019-05-16T14:22:40.835Z,98702.25
2019-05-16T14:25:09.970Z,98695.27
2019-05-16T14:27:38.543Z,98701.81
2019-05-16T14:30:09.662Z,98689.94
2019-05-16T14:32:43.106Z,98685.55
2019-05-16T14:35:09.263Z,98690.39
2019-05-16T14:37:38.369Z,98681.20
2019-05-16T14:40:09.375Z,98685.16
2019-05-16T14:42:38.900Z,98680.77
2019-05-16T14:45:19.007Z,98680.37
2019-05-16T14:47:48.345Z,98680.77
2019-05-16T14:50:17.851Z,98677.25
2019-05-16T14:52:47.390Z,98670.66
2019-05-16T14:55:18.400Z,98672.86
2019-05-16T14:57:47.593Z,98675.92
2019-05-16T15:00:18.533Z,98680.77
2019-05-16T15:02:47.982Z,98678.56
2019-05-16T15:05:17.582Z,98679.01
2019-05-16T15:07:48.342Z,98674.61
2019-05-16T15:10:17.454Z,98674.17
2019-05-16T15:12:46.915Z,98674.61
2019-05-16T15:15:23.488Z,98675.05
2019-05-16T15:17:48.844Z,98671.98
2019-05-16T15:20:18.410Z,98671.14
2019-05-16T15:22:47.443Z,98678.61
2019-05-16T15:25:17.593Z,98669.38
2019-05-16T15:27:47.851Z,98664.11
2019-05-16T15:30:17.528Z,98660.15
2019-05-16T15:32:48.175Z,98662.82
2019-05-16T15:35:19.072Z,98661.50
2019-05-16T15:37:48.452Z,98654.44
2019-05-16T15:40:18.743Z,98657.07
2019-05-16T15:42:47.255Z,98652.23
2019-05-16T15:45:17.845Z,98655.78
2019-05-16T15:47:47.091Z,98654.91
2019-05-16T15:50:18.438Z,98655.78
2019-05-16T15:52:47.858Z,98651.36
2019-05-16T15:55:18.105Z,98646.11
2019-05-16T15:57:47.709Z,98644.80
2019-05-16T16:00:19.677Z,98639.52
2019-05-16T16:02:48.383Z,98643.48
2019-05-16T16:05:18.025Z,98641.28
2019-05-16T16:07:48.167Z,98639.99
2019-05-16T16:10:20.317Z,98629.44
2019-05-16T16:12:48.752Z,98631.63
2019-05-16T16:15:17.617Z,98633.39
2019-05-16T16:17:46.946Z,98625.03
2019-05-16T16:20:16.952Z,98626.36
2019-05-16T16:22:46.897Z,98626.80
2019-05-16T16:25:17.616Z,98624.16
2019-05-16T16:27:46.311Z,98629.00
2019-05-16T16:30:18.486Z,98622.84
2019-05-16T16:32:45.893Z,98626.80
2019-05-16T16:35:17.270Z,98627.67
2019-05-16T16:37:46.915Z,98633.83
2019-05-16T16:40:17.555Z,98630.73
2019-05-16T16:42:47.433Z,98623.72
2019-05-16T16:45:18.153Z,98622.41
2019-05-16T16:47:47.102Z,98618.88
2019-05-16T16:50:17.774Z,98618.91
2019-05-16T16:52:47.455Z,98614.03
2019-05-16T16:55:17.130Z,98624.57
2019-05-16T16:57:47.269Z,98628.52
2019-05-16T17:00:17.468Z,98621.48
2019-05-16T17:03:02.065Z,98621.96
2019-05-16T17:05:17.448Z,98618.44
2019-05-16T17:07:48.643Z,98620.63
2019-05-16T17:10:16.650Z,98624.59
2019-05-16T17:12:46.909Z,98620.64
2019-05-16T17:15:17.111Z,98618.88
2019-05-16T17:17:46.639Z,98615.36
2019-05-16T17:20:15.803Z,98618.44
2019-05-16T17:22:46.581Z,98612.73
2019-05-16T17:25:15.630Z,98612.73
2019-05-16T17:27:46.657Z,98609.22
2019-05-16T17:30:17.178Z,98618.46
2019-05-16T17:32:46.059Z,98614.03
2019-05-16T17:35:18.677Z,98623.30
2019-05-16T17:37:50.745Z,98619.78
2019-05-16T17:40:20.326Z,98615.36
2019-05-16T17:42:49.026Z,98617.12
2019-05-16T17:45:19.192Z,98624.57
2019-05-16T17:47:47.822Z,98622.81
2019-05-16T17:50:18.166Z,98627.20
2019-05-16T17:52:47.548Z,98624.56
2019-05-16T17:55:18.928Z,98614.04
2019-05-16T17:57:47.592Z,98614.03
2019-05-16T18:00:25.042Z,98621.52
2019-05-16T18:02:47.775Z,98625.94
2019-05-16T18:05:17.252Z,98622.41
2019-05-16T18:07:47.421Z,98625.94
2019-05-16T18:10:17.481Z,98628.13
2019-05-16T18:12:47.989Z,98621.98
2019-05-16T18:15:19.437Z,98618.91
2019-05-16T18:17:48.164Z,98627.69
2019-05-16T18:20:17.743Z,98618.90
2019-05-16T18:22:47.173Z,98619.77
2019-05-16T18:25:16.522Z,98618.44
2019-05-16T18:27:45.350Z,98614.94
2019-05-16T18:30:16.750Z,98623.29
2019-05-16T18:32:45.781Z,98623.30
2019-05-16T18:35:16.718Z,98618.91
2019-05-16T18:37:46.497Z,98619.77
2019-05-16T18:40:16.719Z,98623.25
2019-05-16T18:42:47.714Z,98624.13
2019-05-16T18:45:16.793Z,98626.77
2019-05-16T18:47:47.006Z,98623.69
2019-05-16T18:50:18.024Z,98625.88
2019-05-16T18:52:47.255Z,98622.37
2019-05-16T18:55:16.967Z,98623.25
2019-05-16T18:57:47.209Z,98622.81
2019-05-16T19:00:17.775Z,98623.70
2019-05-16T19:02:47.911Z,98618.42
2019-05-16T19:05:17.466Z,98622.81
2019-05-16T19:07:47.537Z,98619.73
2019-05-16T19:10:17.775Z,98621.49
2019-05-16T19:12:47.770Z,98613.58
2019-05-16T19:15:17.953Z,98617.09
2019-05-16T19:17:46.900Z,98610.50
2019-05-16T19:20:17.223Z,98615.34
2019-05-16T19:22:46.243Z,98610.53
2019-05-16T19:25:18.312Z,98610.06
2019-05-16T19:27:46.492Z,98614.91
2019-05-16T19:30:16.928Z,98614.91
2019-05-16T19:32:46.895Z,98614.91
2019-05-16T19:35:16.567Z,98619.73
2019-05-16T19:37:47.010Z,98621.94
2019-05-16T19:40:17.233Z,98625.02
2019-05-16T19:42:47.260Z,98625.45
2019-05-16T19:45:17.183Z,98623.25
2019-05-16T19:47:47.091Z,98624.10
2019-05-16T19:50:16.787Z,98618.39
2019-05-16T19:52:47.199Z,98621.05
2019-05-16T19:55:16.124Z,98618.86
2019-05-16T19:57:46.647Z,98619.70
2019-05-16T20:00:17.208Z,98620.14
2019-05-16T20:02:47.351Z,98618.39
2019-05-16T20:05:17.136Z,98616.22
2019-05-16T20:07:45.976Z,98609.19
2019-05-16T20:10:16.915Z,98615.78
2019-05-16T20:12:46.331Z,98608.72
2019-05-16T20:15:16.622Z,98608.75
2019-05-16T20:17:56.126Z,98612.23
2019-05-16T20:20:18.648Z,98610.91
2019-05-16T20:22:47.505Z,98609.16
2019-05-16T20:25:16.475Z,98610.91
2019-05-16T20:27:46.939Z,98610.48
2019-05-16T20:30:17.132Z,98615.31
2019-05-16T20:32:46.008Z,98610.03
2019-05-16T20:35:17.340Z,98607.84
2019-05-16T20:37:47.345Z,98604.33
2019-05-16T20:40:17.263Z,98606.95
2019-05-16T20:42:47.570Z,98608.72
2019-05-16T20:45:17.698Z,98606.08
2019-05-16T20:47:46.479Z,98603.85
2019-05-16T20:50:16.962Z,98604.33
2019-05-16T20:52:46.627Z,98600.81
2019-05-16T20:55:17.547Z,98598.17
2019-05-16T20:57:48.535Z,98594.21
2019-05-16T21:00:17.680Z,98592.02
2019-05-16T21:02:46.583Z,98591.58
2019-05-16T21:05:17.872Z,98588.94
2019-05-16T21:07:48.914Z,98584.55
2019-05-16T21:10:18.076Z,98585.86
2019-05-16T21:12:46.898Z,98587.18
2019-05-16T21:15:17.172Z,98586.73
2019-05-16T21:17:46.690Z,98587.62
2019-05-16T21:20:17.599Z,98579.30
2019-05-16T21:22:47.168Z,98582.80
2019-05-16T21:25:16.883Z,98582.37
2019-05-16T21:27:46.604Z,98575.75
2019-05-16T21:30:16.373Z,98576.63
2019-05-16T21:32:47.123Z,98577.51
2019-05-16T21:35:16.124Z,98581.91
2019-05-16T21:37:46.651Z,98575.75
2019-05-16T21:40:16.891Z,98576.19
2019-05-16T21:42:45.375Z,98573.11
2019-05-16T21:45:14.809Z,98567.39
2019-05-16T21:47:43.375Z,98566.95
2019-05-16T21:50:12.764Z,98569.59
2019-05-16T21:52:41.398Z,98567.86
2019-05-16T21:55:10.977Z,98562.14
2019-05-16T21:57:39.615Z,98563.44
2019-05-16T22:00:17.154Z,98562.12
2019-05-16T22:02:46.913Z,98555.09
2019-05-16T22:05:17.154Z,98554.66
2019-05-16T22:07:47.414Z,98550.25
2019-05-16T22:10:16.869Z,98550.25
2019-05-16T22:12:47.530Z,98547.17
2019-05-16T22:15:17.096Z,98544.56
2019-05-16T22:17:47.212Z,98552.47
2019-05-16T22:20:16.633Z,98554.23
2019-05-16T22:22:47.000Z,98555.08
2019-05-16T22:25:16.744Z,98553.35
2019-05-16T22:27:48.617Z,98554.20
2019-05-16T22:30:18.392Z,98552.89
2019-05-16T22:32:48.306Z,98552.45
2019-05-16T22:35:18.928Z,98547.61
2019-05-16T22:37:55.219Z,98544.97
2019-05-16T22:40:19.218Z,98543.69
2019-05-16T22:42:47.811Z,98537.08
2019-05-16T22:45:18.376Z,98538.41
2019-05-16T22:47:47.196Z,98537.08
2019-05-16T22:50:17.607Z,98536.62
2019-05-16T22:52:46.689Z,98535.30
2019-05-16T22:55:17.177Z,98536.62
2019-05-16T22:57:47.309Z,98538.41
2019-05-16T23:00:26.546Z,98536.18
2019-05-16T23:02:56.660Z,98533.56
2019-05-16T23:05:27.378Z,98526.95
2019-05-16T23:08:05.076Z,98530.05
2019-05-16T23:10:28.084Z,98526.54
2019-05-16T23:12:57.188Z,98526.97
2019-05-16T23:15:26.662Z,98522.13
2019-05-16T23:17:57.358Z,98523.89
2019-05-16T23:20:27.766Z,98531.38
2019-05-16T23:22:56.859Z,98532.66
2019-05-16T23:25:25.407Z,98531.81
2019-05-16T23:27:54.134Z,98529.61
2019-05-16T23:30:23.320Z,98526.09
2019-05-16T23:32:51.799Z,98522.14
2019-05-16T23:35:20.521Z,98523.90
2019-05-16T23:37:49.193Z,98522.55
2019-05-16T23:40:17.960Z,98522.11
2019-05-16T23:42:46.652Z,98515.52
2019-05-16T23:45:17.109Z,98519.91
2019-05-16T23:47:47.127Z,98510.68
2019-05-16T23:50:17.085Z,98515.95
2019-05-16T23:52:47.159Z,98507.61
2019-05-16T23:55:17.313Z,98505.85
2019-05-16T23:57:46.798Z,98503.64
